sensor_id;sensor_type;location;lat;lon;timestamp;P1;durP1;ratioP1;P2;durP2;ratioP2
72201;SDS011;60105;54.956;73.412;2022-07-06T00:00:27;19.15;;;8.23;;
72201;SDS011;60105;54.956;73.412;2022-07-06T00:02:53;25.23;;;8.63;;
72201;SDS011;60105;54.956;73.412;2022-07-06T00:05:19;26.30;;;7.57;;
72201;SDS011;60105;54.956;73.412;2022-07-06T00:07:45;23.03;;;9.20;;
72201;SDS011;60105;54.956;73.412;2022-07-06T00:10:12;28.15;;;9.77;;
72201;SDS011;60105;54.956;73.412;2022-07-06T00:12:43;28.65;;;8.57;;
72201;SDS011;60105;54.956;73.412;2022-07-06T00:15:10;25.55;;;8.95;;
72201;SDS011;60105;54.956;73.412;2022-07-06T00:17:36;24.60;;;8.43;;
72201;SDS011;60105;54.956;73.412;2022-07-06T00:20:08;31.73;;;8.93;;
72201;SDS011;60105;54.956;73.412;2022-07-06T00:22:34;24.35;;;8.75;;
72201;SDS011;60105;54.956;73.412;2022-07-06T00:25:00;24.73;;;9.02;;
72201;SDS011;60105;54.956;73.412;2022-07-06T00:27:27;19.58;;;7.95;;
72201;SDS011;60105;54.956;73.412;2022-07-06T00:29:53;19.73;;;8.63;;
72201;SDS011;60105;54.956;73.412;2022-07-06T00:32:19;20.67;;;8.00;;
72201;SDS011;60105;54.956;73.412;2022-07-06T00:34:45;16.48;;;8.18;;
72201;SDS011;60105;54.956;73.412;2022-07-06T00:37:11;23.25;;;8.10;;
72201;SDS011;60105;54.956;73.412;2022-07-06T00:39:40;24.80;;;8.90;;
72201;SDS011;60105;54.956;73.412;2022-07-06T00:42:07;23.35;;;8.27;;
72201;SDS011;60105;54.956;73.412;2022-07-06T00:44:33;18.27;;;8.10;;
72201;SDS011;60105;54.956;73.412;2022-07-06T00:46:59;25.15;;;9.70;;
72201;SDS011;60105;54.956;73.412;2022-07-06T00:49:35;26.05;;;8.75;;
72201;SDS011;60105;54.956;73.412;2022-07-06T00:52:28;21.55;;;8.23;;
72201;SDS011;60105;54.956;73.412;2022-07-06T00:54:54;21.55;;;8.38;;
72201;SDS011;60105;54.956;73.412;2022-07-06T00:57:20;18.53;;;8.67;;
72201;SDS011;60105;54.956;73.412;2022-07-06T00:59:47;21.13;;;8.40;;
72201;SDS011;60105;54.956;73.412;2022-07-06T01:02:13;21.60;;;9.70;;
72201;SDS011;60105;54.956;73.412;2022-07-06T01:04:39;25.13;;;10.40;;
72201;SDS011;60105;54.956;73.412;2022-07-06T01:07:06;24.40;;;10.82;;
72201;SDS011;60105;54.956;73.412;2022-07-06T01:09:32;22.73;;;10.83;;
72201;SDS011;60105;54.956;73.412;2022-07-06T01:12:03;24.77;;;10.82;;
72201;SDS011;60105;54.956;73.412;2022-07-06T01:14:29;23.25;;;10.38;;
72201;SDS011;60105;54.956;73.412;2022-07-06T01:16:56;22.88;;;10.25;;
72201;SDS011;60105;54.956;73.412;2022-07-06T01:19:23;24.23;;;10.15;;
72201;SDS011;60105;54.956;73.412;2022-07-06T01:21:49;22.57;;;9.37;;
72201;SDS011;60105;54.956;73.412;2022-07-06T01:24:15;24.27;;;9.98;;
72201;SDS011;60105;54.956;73.412;2022-07-06T01:26:41;22.65;;;9.85;;
72201;SDS011;60105;54.956;73.412;2022-07-06T01:29:18;23.35;;;10.25;;
72201;SDS011;60105;54.956;73.412;2022-07-06T01:31:46;24.17;;;10.63;;
72201;SDS011;60105;54.956;73.412;2022-07-06T01:34:21;24.77;;;11.87;;
72201;SDS011;60105;54.956;73.412;2022-07-06T01:36:47;27.27;;;12.88;;
72201;SDS011;60105;54.956;73.412;2022-07-06T01:39:23;31.15;;;14.45;;
72201;SDS011;60105;54.956;73.412;2022-07-06T01:41:49;33.15;;;13.77;;
72201;SDS011;60105;54.956;73.412;2022-07-06T01:44:15;36.47;;;15.20;;
72201;SDS011;60105;54.956;73.412;2022-07-06T01:46:42;42.50;;;16.20;;
72201;SDS011;60105;54.956;73.412;2022-07-06T01:49:08;39.83;;;16.23;;
72201;SDS011;60105;54.956;73.412;2022-07-06T01:51:35;41.83;;;18.00;;
72201;SDS011;60105;54.956;73.412;2022-07-06T01:54:09;43.92;;;18.05;;
72201;SDS011;60105;54.956;73.412;2022-07-06T01:56:35;46.50;;;19.98;;
72201;SDS011;60105;54.956;73.412;2022-07-06T01:59:03;46.83;;;20.13;;
72201;SDS011;60105;54.956;73.412;2022-07-06T02:01:31;53.25;;;23.42;;
72201;SDS011;60105;54.956;73.412;2022-07-06T02:04:07;50.85;;;20.63;;
72201;SDS011;60105;54.956;73.412;2022-07-06T02:06:33;52.40;;;20.27;;
72201;SDS011;60105;54.956;73.412;2022-07-06T02:08:59;60.72;;;20.40;;
72201;SDS011;60105;54.956;73.412;2022-07-06T02:11:26;52.00;;;20.33;;
72201;SDS011;60105;54.956;73.412;2022-07-06T02:13:53;63.75;;;23.20;;
72201;SDS011;60105;54.956;73.412;2022-07-06T02:16:24;57.00;;;23.20;;
72201;SDS011;60105;54.956;73.412;2022-07-06T02:18:51;58.47;;;22.10;;
72201;SDS011;60105;54.956;73.412;2022-07-06T02:21:27;51.10;;;21.67;;
72201;SDS011;60105;54.956;73.412;2022-07-06T02:23:53;48.77;;;19.97;;
72201;SDS011;60105;54.956;73.412;2022-07-06T02:26:20;41.45;;;17.67;;
72201;SDS011;60105;54.956;73.412;2022-07-06T02:28:46;45.72;;;17.45;;
72201;SDS011;60105;54.956;73.412;2022-07-06T02:31:14;45.72;;;17.90;;
72201;SDS011;60105;54.956;73.412;2022-07-06T02:33:41;43.97;;;18.98;;
72201;SDS011;60105;54.956;73.412;2022-07-06T02:36:13;45.97;;;18.40;;
72201;SDS011;60105;54.956;73.412;2022-07-06T02:38:48;44.83;;;18.63;;
72201;SDS011;60105;54.956;73.412;2022-07-06T02:41:15;43.55;;;17.77;;
72201;SDS011;60105;54.956;73.412;2022-07-06T02:43:44;48.95;;;19.20;;
72201;SDS011;60105;54.956;73.412;2022-07-06T02:46:10;45.85;;;18.75;;
72201;SDS011;60105;54.956;73.412;2022-07-06T02:48:46;44.90;;;19.87;;
72201;SDS011;60105;54.956;73.412;2022-07-06T02:51:13;53.22;;;20.25;;
72201;SDS011;60105;54.956;73.412;2022-07-06T02:53:39;48.78;;;20.73;;
72201;SDS011;60105;54.956;73.412;2022-07-06T02:56:06;46.35;;;19.13;;
72201;SDS011;60105;54.956;73.412;2022-07-06T02:58:34;48.30;;;19.40;;
72201;SDS011;60105;54.956;73.412;2022-07-06T03:01:00;50.67;;;18.60;;
72201;SDS011;60105;54.956;73.412;2022-07-06T03:03:28;47.65;;;18.67;;
72201;SDS011;60105;54.956;73.412;2022-07-06T03:05:55;46.78;;;19.27;;
72201;SDS011;60105;54.956;73.412;2022-07-06T03:08:22;48.88;;;19.50;;
72201;SDS011;60105;54.956;73.412;2022-07-06T03:10:59;50.65;;;20.73;;
72201;SDS011;60105;54.956;73.412;2022-07-06T03:13:26;46.43;;;19.30;;
72201;SDS011;60105;54.956;73.412;2022-07-06T03:15:54;49.42;;;20.90;;
72201;SDS011;60105;54.956;73.412;2022-07-06T03:18:21;50.05;;;20.67;;
72201;SDS011;60105;54.956;73.412;2022-07-06T03:20:48;47.80;;;20.95;;
72201;SDS011;60105;54.956;73.412;2022-07-06T03:23:16;50.40;;;20.73;;
72201;SDS011;60105;54.956;73.412;2022-07-06T03:25:43;54.97;;;22.20;;
72201;SDS011;60105;54.956;73.412;2022-07-06T03:28:10;51.60;;;21.58;;
72201;SDS011;60105;54.956;73.412;2022-07-06T03:30:36;49.03;;;22.00;;
72201;SDS011;60105;54.956;73.412;2022-07-06T03:33:03;52.45;;;23.42;;
72201;SDS011;60105;54.956;73.412;2022-07-06T03:35:29;50.72;;;20.73;;
72201;SDS011;60105;54.956;73.412;2022-07-06T03:37:56;54.40;;;23.20;;
72201;SDS011;60105;54.956;73.412;2022-07-06T03:40:25;56.72;;;21.65;;
72201;SDS011;60105;54.956;73.412;2022-07-06T03:42:57;55.92;;;22.67;;
72201;SDS011;60105;54.956;73.412;2022-07-06T03:45:25;54.25;;;21.08;;
72201;SDS011;60105;54.956;73.412;2022-07-06T03:47:52;50.08;;;20.50;;
72201;SDS011;60105;54.956;73.412;2022-07-06T03:50:19;51.20;;;20.80;;
72201;SDS011;60105;54.956;73.412;2022-07-06T03:52:45;48.13;;;20.73;;
72201;SDS011;60105;54.956;73.412;2022-07-06T03:55:11;47.35;;;20.38;;
72201;SDS011;60105;54.956;73.412;2022-07-06T03:57:42;45.35;;;20.80;;
72201;SDS011;60105;54.956;73.412;2022-07-06T04:00:12;46.53;;;20.60;;
72201;SDS011;60105;54.956;73.412;2022-07-06T04:02:48;49.37;;;21.47;;
72201;SDS011;60105;54.956;73.412;2022-07-06T04:05:19;44.13;;;20.70;;
72201;SDS011;60105;54.956;73.412;2022-07-06T04:07:48;46.53;;;19.05;;
72201;SDS011;60105;54.956;73.412;2022-07-06T04:10:15;46.08;;;19.85;;
72201;SDS011;60105;54.956;73.412;2022-07-06T04:12:42;44.10;;;19.95;;
72201;SDS011;60105;54.956;73.412;2022-07-06T04:15:09;47.20;;;20.20;;
72201;SDS011;60105;54.956;73.412;2022-07-06T04:17:36;34.15;;;18.45;;
72201;SDS011;60105;54.956;73.412;2022-07-06T04:20:20;41.67;;;18.70;;
72201;SDS011;60105;54.956;73.412;2022-07-06T04:22:47;38.80;;;18.95;;
72201;SDS011;60105;54.956;73.412;2022-07-06T04:25:15;38.42;;;19.27;;
72201;SDS011;60105;54.956;73.412;2022-07-06T04:27:42;36.57;;;17.13;;
72201;SDS011;60105;54.956;73.412;2022-07-06T04:30:10;38.60;;;18.00;;
72201;SDS011;60105;54.956;73.412;2022-07-06T04:32:38;38.63;;;17.73;;
72201;SDS011;60105;54.956;73.412;2022-07-06T04:35:04;45.08;;;19.58;;
72201;SDS011;60105;54.956;73.412;2022-07-06T04:37:31;44.72;;;20.10;;
72201;SDS011;60105;54.956;73.412;2022-07-06T04:39:58;47.23;;;20.43;;
72201;SDS011;60105;54.956;73.412;2022-07-06T04:42:25;37.80;;;20.02;;
72201;SDS011;60105;54.956;73.412;2022-07-06T04:44:51;41.40;;;20.67;;
72201;SDS011;60105;54.956;73.412;2022-07-06T04:47:17;43.80;;;20.58;;
72201;SDS011;60105;54.956;73.412;2022-07-06T04:49:44;43.78;;;21.92;;
72201;SDS011;60105;54.956;73.412;2022-07-06T04:52:12;45.40;;;21.47;;
72201;SDS011;60105;54.956;73.412;2022-07-06T04:54:48;42.05;;;21.52;;
72201;SDS011;60105;54.956;73.412;2022-07-06T04:57:15;42.17;;;20.35;;
72201;SDS011;60105;54.956;73.412;2022-07-06T04:59:42;42.42;;;19.35;;
72201;SDS011;60105;54.956;73.412;2022-07-06T05:02:08;38.33;;;19.58;;
72201;SDS011;60105;54.956;73.412;2022-07-06T05:04:34;39.27;;;18.87;;
72201;SDS011;60105;54.956;73.412;2022-07-06T05:07:06;40.53;;;20.05;;
72201;SDS011;60105;54.956;73.412;2022-07-06T05:09:32;36.75;;;19.83;;
72201;SDS011;60105;54.956;73.412;2022-07-06T05:11:59;40.25;;;20.15;;
72201;SDS011;60105;54.956;73.412;2022-07-06T05:14:25;40.88;;;20.85;;
72201;SDS011;60105;54.956;73.412;2022-07-06T05:16:53;38.03;;;21.33;;
72201;SDS011;60105;54.956;73.412;2022-07-06T05:19:19;43.30;;;20.60;;
72201;SDS011;60105;54.956;73.412;2022-07-06T05:21:47;37.25;;;19.30;;
72201;SDS011;60105;54.956;73.412;2022-07-06T05:24:13;40.17;;;19.05;;
72201;SDS011;60105;54.956;73.412;2022-07-06T05:26:41;36.25;;;17.73;;
72201;SDS011;60105;54.956;73.412;2022-07-06T05:29:08;33.07;;;17.77;;
72201;SDS011;60105;54.956;73.412;2022-07-06T05:31:34;29.60;;;17.80;;
72201;SDS011;60105;54.956;73.412;2022-07-06T05:34:01;31.63;;;18.00;;
72201;SDS011;60105;54.956;73.412;2022-07-06T05:36:27;35.35;;;17.85;;
72201;SDS011;60105;54.956;73.412;2022-07-06T05:38:53;32.78;;;17.45;;
72201;SDS011;60105;54.956;73.412;2022-07-06T05:41:21;37.90;;;17.77;;
72201;SDS011;60105;54.956;73.412;2022-07-06T05:43:47;31.23;;;17.15;;
72201;SDS011;60105;54.956;73.412;2022-07-06T05:46:14;32.70;;;17.88;;
72201;SDS011;60105;54.956;73.412;2022-07-06T05:48:40;31.10;;;18.30;;
72201;SDS011;60105;54.956;73.412;2022-07-06T05:51:25;33.45;;;18.20;;
72201;SDS011;60105;54.956;73.412;2022-07-06T05:53:52;40.00;;;18.07;;
72201;SDS011;60105;54.956;73.412;2022-07-06T05:56:19;39.50;;;19.52;;
72201;SDS011;60105;54.956;73.412;2022-07-06T05:58:46;37.40;;;18.83;;
72201;SDS011;60105;54.956;73.412;2022-07-06T06:01:12;38.33;;;19.27;;
72201;SDS011;60105;54.956;73.412;2022-07-06T06:03:43;33.65;;;18.52;;
72201;SDS011;60105;54.956;73.412;2022-07-06T06:06:10;39.70;;;19.67;;
72201;SDS011;60105;54.956;73.412;2022-07-06T06:08:37;39.63;;;18.95;;
72201;SDS011;60105;54.956;73.412;2022-07-06T06:11:08;31.83;;;18.00;;
72201;SDS011;60105;54.956;73.412;2022-07-06T06:13:35;32.83;;;17.80;;
72201;SDS011;60105;54.956;73.412;2022-07-06T06:16:01;34.58;;;18.38;;
72201;SDS011;60105;54.956;73.412;2022-07-06T06:18:27;35.47;;;18.97;;
72201;SDS011;60105;54.956;73.412;2022-07-06T06:20:53;42.08;;;20.23;;
72201;SDS011;60105;54.956;73.412;2022-07-06T06:23:29;39.38;;;19.98;;
72201;SDS011;60105;54.956;73.412;2022-07-06T06:25:55;41.92;;;20.55;;
72201;SDS011;60105;54.956;73.412;2022-07-06T06:28:21;48.83;;;21.98;;
72201;SDS011;60105;54.956;73.412;2022-07-06T06:30:47;51.73;;;21.67;;
72201;SDS011;60105;54.956;73.412;2022-07-06T06:33:16;52.50;;;22.88;;
72201;SDS011;60105;54.956;73.412;2022-07-06T06:35:48;52.40;;;22.50;;
72201;SDS011;60105;54.956;73.412;2022-07-06T06:38:17;56.58;;;24.02;;
72201;SDS011;60105;54.956;73.412;2022-07-06T06:40:44;58.42;;;22.40;;
72201;SDS011;60105;54.956;73.412;2022-07-06T06:43:10;64.60;;;27.07;;
72201;SDS011;60105;54.956;73.412;2022-07-06T06:45:44;68.70;;;25.75;;
72201;SDS011;60105;54.956;73.412;2022-07-06T06:48:17;73.05;;;25.58;;
72201;SDS011;60105;54.956;73.412;2022-07-06T06:50:45;60.47;;;24.77;;
72201;SDS011;60105;54.956;73.412;2022-07-06T06:53:11;66.97;;;26.50;;
72201;SDS011;60105;54.956;73.412;2022-07-06T06:55:43;62.40;;;23.80;;
72201;SDS011;60105;54.956;73.412;2022-07-06T06:58:14;69.10;;;24.10;;
72201;SDS011;60105;54.956;73.412;2022-07-06T07:00:40;64.95;;;23.67;;
72201;SDS011;60105;54.956;73.412;2022-07-06T07:03:06;65.72;;;25.73;;
72201;SDS011;60105;54.956;73.412;2022-07-06T07:05:32;61.95;;;24.88;;
72201;SDS011;60105;54.956;73.412;2022-07-06T07:07:59;65.83;;;23.03;;
72201;SDS011;60105;54.956;73.412;2022-07-06T07:10:25;54.17;;;22.73;;
72201;SDS011;60105;54.956;73.412;2022-07-06T07:13:02;66.40;;;25.52;;
72201;SDS011;60105;54.956;73.412;2022-07-06T07:15:28;59.42;;;24.25;;
72201;SDS011;60105;54.956;73.412;2022-07-06T07:17:54;54.13;;;21.60;;
72201;SDS011;60105;54.956;73.412;2022-07-06T07:20:29;52.73;;;21.93;;
72201;SDS011;60105;54.956;73.412;2022-07-06T07:22:56;55.33;;;21.48;;
72201;SDS011;60105;54.956;73.412;2022-07-06T07:25:23;55.13;;;23.00;;
72201;SDS011;60105;54.956;73.412;2022-07-06T07:27:49;56.08;;;24.13;;
72201;SDS011;60105;54.956;73.412;2022-07-06T07:30:15;51.90;;;23.17;;
72201;SDS011;60105;54.956;73.412;2022-07-06T07:32:41;43.43;;;21.97;;
72201;SDS011;60105;54.956;73.412;2022-07-06T07:35:08;52.53;;;23.10;;
72201;SDS011;60105;54.956;73.412;2022-07-06T07:37:34;48.30;;;22.55;;
72201;SDS011;60105;54.956;73.412;2022-07-06T07:40:01;54.17;;;21.80;;
72201;SDS011;60105;54.956;73.412;2022-07-06T07:42:28;50.83;;;22.70;;
72201;SDS011;60105;54.956;73.412;2022-07-06T07:44:54;49.60;;;22.10;;
72201;SDS011;60105;54.956;73.412;2022-07-06T07:47:25;52.10;;;22.92;;
72201;SDS011;60105;54.956;73.412;2022-07-06T07:49:52;48.50;;;22.80;;
72201;SDS011;60105;54.956;73.412;2022-07-06T07:52:18;39.42;;;21.73;;
72201;SDS011;60105;54.956;73.412;2022-07-06T07:54:44;42.38;;;21.17;;
72201;SDS011;60105;54.956;73.412;2022-07-06T07:57:15;41.87;;;22.00;;
72201;SDS011;60105;54.956;73.412;2022-07-06T07:59:41;41.75;;;20.83;;
72201;SDS011;60105;54.956;73.412;2022-07-06T08:02:08;44.20;;;21.35;;
72201;SDS011;60105;54.956;73.412;2022-07-06T08:04:44;35.80;;;20.17;;
72201;SDS011;60105;54.956;73.412;2022-07-06T08:07:10;36.13;;;20.02;;
72201;SDS011;60105;54.956;73.412;2022-07-06T08:09:36;41.43;;;20.77;;
72201;SDS011;60105;54.956;73.412;2022-07-06T08:12:02;34.58;;;20.77;;
72201;SDS011;60105;54.956;73.412;2022-07-06T08:14:29;38.60;;;19.63;;
72201;SDS011;60105;54.956;73.412;2022-07-06T08:16:55;34.90;;;20.50;;
72201;SDS011;60105;54.956;73.412;2022-07-06T08:19:22;42.72;;;21.65;;
72201;SDS011;60105;54.956;73.412;2022-07-06T08:21:48;42.50;;;21.03;;
72201;SDS011;60105;54.956;73.412;2022-07-06T08:24:24;39.72;;;20.75;;
72201;SDS011;60105;54.956;73.412;2022-07-06T08:26:50;40.47;;;20.02;;
72201;SDS011;60105;54.956;73.412;2022-07-06T08:29:16;40.58;;;21.13;;
72201;SDS011;60105;54.956;73.412;2022-07-06T08:31:42;38.20;;;20.33;;
72201;SDS011;60105;54.956;73.412;2022-07-06T08:34:08;36.27;;;19.60;;
72201;SDS011;60105;54.956;73.412;2022-07-06T08:36:35;36.95;;;20.02;;
72201;SDS011;60105;54.956;73.412;2022-07-06T08:39:01;34.97;;;19.58;;
72201;SDS011;60105;54.956;73.412;2022-07-06T08:41:28;32.92;;;19.33;;
72201;SDS011;60105;54.956;73.412;2022-07-06T08:43:55;34.05;;;20.23;;
72201;SDS011;60105;54.956;73.412;2022-07-06T08:46:22;33.10;;;18.80;;
72201;SDS011;60105;54.956;73.412;2022-07-06T08:48:48;30.60;;;17.70;;
72201;SDS011;60105;54.956;73.412;2022-07-06T08:51:27;34.13;;;17.92;;
72201;SDS011;60105;54.956;73.412;2022-07-06T08:53:54;34.20;;;18.88;;
72201;SDS011;60105;54.956;73.412;2022-07-06T08:56:21;34.50;;;17.63;;
72201;SDS011;60105;54.956;73.412;2022-07-06T08:58:48;37.03;;;19.87;;
72201;SDS011;60105;54.956;73.412;2022-07-06T09:01:14;36.45;;;19.65;;
72201;SDS011;60105;54.956;73.412;2022-07-06T09:03:45;31.98;;;18.35;;
72201;SDS011;60105;54.956;73.412;2022-07-06T09:06:14;38.83;;;19.58;;
72201;SDS011;60105;54.956;73.412;2022-07-06T09:08:42;34.78;;;17.67;;
72201;SDS011;60105;54.956;73.412;2022-07-06T09:11:09;37.00;;;17.90;;
72201;SDS011;60105;54.956;73.412;2022-07-06T09:13:35;29.38;;;17.98;;
72201;SDS011;60105;54.956;73.412;2022-07-06T09:16:08;29.17;;;17.95;;
72201;SDS011;60105;54.956;73.412;2022-07-06T09:18:39;30.50;;;17.58;;
72201;SDS011;60105;54.956;73.412;2022-07-06T09:21:09;32.47;;;18.08;;
72201;SDS011;60105;54.956;73.412;2022-07-06T09:23:35;28.13;;;18.30;;
72201;SDS011;60105;54.956;73.412;2022-07-06T09:26:02;32.80;;;17.95;;
72201;SDS011;60105;54.956;73.412;2022-07-06T09:28:42;31.55;;;17.20;;
72201;SDS011;60105;54.956;73.412;2022-07-06T09:31:10;32.80;;;16.73;;
72201;SDS011;60105;54.956;73.412;2022-07-06T09:33:36;30.20;;;17.77;;
72201;SDS011;60105;54.956;73.412;2022-07-06T09:36:03;32.30;;;18.43;;
72201;SDS011;60105;54.956;73.412;2022-07-06T09:38:31;29.63;;;18.38;;
72201;SDS011;60105;54.956;73.412;2022-07-06T09:40:58;30.92;;;18.77;;
72201;SDS011;60105;54.956;73.412;2022-07-06T09:43:27;31.75;;;18.60;;
72201;SDS011;60105;54.956;73.412;2022-07-06T09:45:57;28.15;;;18.38;;
72201;SDS011;60105;54.956;73.412;2022-07-06T09:48:24;32.93;;;18.33;;
72201;SDS011;60105;54.956;73.412;2022-07-06T09:50:59;30.52;;;17.55;;
72201;SDS011;60105;54.956;73.412;2022-07-06T09:53:34;28.52;;;18.27;;
72201;SDS011;60105;54.956;73.412;2022-07-06T09:56:10;30.58;;;18.67;;
72201;SDS011;60105;54.956;73.412;2022-07-06T09:58:39;30.73;;;19.30;;
72201;SDS011;60105;54.956;73.412;2022-07-06T10:01:05;26.40;;;17.53;;
72201;SDS011;60105;54.956;73.412;2022-07-06T10:03:31;27.00;;;17.15;;
72201;SDS011;60105;54.956;73.412;2022-07-06T10:06:08;28.23;;;16.70;;
72201;SDS011;60105;54.956;73.412;2022-07-06T10:08:54;25.13;;;16.23;;
72201;SDS011;60105;54.956;73.412;2022-07-06T10:11:22;26.20;;;16.42;;
72201;SDS011;60105;54.956;73.412;2022-07-06T10:13:50;26.27;;;17.30;;
72201;SDS011;60105;54.956;73.412;2022-07-06T10:16:24;28.42;;;18.10;;
72201;SDS011;60105;54.956;73.412;2022-07-06T10:19:01;24.48;;;16.10;;
72201;SDS011;60105;54.956;73.412;2022-07-06T10:21:29;27.92;;;16.67;;
72201;SDS011;60105;54.956;73.412;2022-07-06T10:23:56;26.10;;;16.10;;
72201;SDS011;60105;54.956;73.412;2022-07-06T10:26:25;28.40;;;17.17;;
72201;SDS011;60105;54.956;73.412;2022-07-06T10:28:52;23.85;;;16.58;;
72201;SDS011;60105;54.956;73.412;2022-07-06T10:31:18;24.52;;;15.93;;
72201;SDS011;60105;54.956;73.412;2022-07-06T10:33:46;23.42;;;14.90;;
72201;SDS011;60105;54.956;73.412;2022-07-06T10:36:13;24.38;;;15.10;;
72201;SDS011;60105;54.956;73.412;2022-07-06T10:38:40;23.63;;;17.23;;
72201;SDS011;60105;54.956;73.412;2022-07-06T10:41:07;27.88;;;17.17;;
72201;SDS011;60105;54.956;73.412;2022-07-06T10:43:36;19.85;;;13.20;;
72201;SDS011;60105;54.956;73.412;2022-07-06T10:46:09;20.45;;;14.00;;
72201;SDS011;60105;54.956;73.412;2022-07-06T10:48:37;20.48;;;12.73;;
72201;SDS011;60105;54.956;73.412;2022-07-06T10:51:05;19.87;;;13.40;;
72201;SDS011;60105;54.956;73.412;2022-07-06T10:53:32;22.45;;;13.40;;
72201;SDS011;60105;54.956;73.412;2022-07-06T10:56:00;19.40;;;13.23;;
72201;SDS011;60105;54.956;73.412;2022-07-06T10:58:35;21.63;;;12.00;;
72201;SDS011;60105;54.956;73.412;2022-07-06T11:01:09;18.58;;;11.50;;
72201;SDS011;60105;54.956;73.412;2022-07-06T11:06:17;20.70;;;11.70;;
72201;SDS011;60105;54.956;73.412;2022-07-06T11:16:30;18.07;;;11.33;;
72201;SDS011;60105;54.956;73.412;2022-07-06T11:19:05;16.90;;;10.68;;
72201;SDS011;60105;54.956;73.412;2022-07-06T11:21:51;17.50;;;10.25;;
72201;SDS011;60105;54.956;73.412;2022-07-06T11:24:37;15.98;;;10.80;;
72201;SDS011;60105;54.956;73.412;2022-07-06T11:27:05;16.27;;;9.98;;
72201;SDS011;60105;54.956;73.412;2022-07-06T11:29:32;20.83;;;12.10;;
72201;SDS011;60105;54.956;73.412;2022-07-06T11:32:04;14.32;;;10.20;;
72201;SDS011;60105;54.956;73.412;2022-07-06T11:34:43;16.30;;;11.40;;
72201;SDS011;60105;54.956;73.412;2022-07-06T11:37:11;18.50;;;10.73;;
72201;SDS011;60105;54.956;73.412;2022-07-06T11:39:40;14.88;;;10.20;;
72201;SDS011;60105;54.956;73.412;2022-07-06T11:42:08;21.63;;;11.60;;
72201;SDS011;60105;54.956;73.412;2022-07-06T11:44:36;17.77;;;10.82;;
72201;SDS011;60105;54.956;73.412;2022-07-06T11:47:03;15.23;;;10.63;;
72201;SDS011;60105;54.956;73.412;2022-07-06T11:49:30;18.38;;;10.73;;
72201;SDS011;60105;54.956;73.412;2022-07-06T11:51:57;15.02;;;10.35;;
72201;SDS011;60105;54.956;73.412;2022-07-06T11:54:24;15.87;;;10.80;;
72201;SDS011;60105;54.956;73.412;2022-07-06T11:56:52;13.93;;;9.82;;
72201;SDS011;60105;54.956;73.412;2022-07-06T11:59:26;18.23;;;10.82;;
72201;SDS011;60105;54.956;73.412;2022-07-06T12:02:00;14.55;;;11.23;;
72201;SDS011;60105;54.956;73.412;2022-07-06T12:04:32;15.98;;;10.48;;
72201;SDS011;60105;54.956;73.412;2022-07-06T12:07:04;16.40;;;9.33;;
72201;SDS011;60105;54.956;73.412;2022-07-06T12:09:33;14.77;;;10.63;;
72201;SDS011;60105;54.956;73.412;2022-07-06T12:12:03;19.05;;;10.85;;
72201;SDS011;60105;54.956;73.412;2022-07-06T12:14:33;18.17;;;10.88;;
72201;SDS011;60105;54.956;73.412;2022-07-06T12:17:04;16.52;;;11.02;;
72201;SDS011;60105;54.956;73.412;2022-07-06T12:19:32;17.00;;;10.13;;
72201;SDS011;60105;54.956;73.412;2022-07-06T12:21:59;15.15;;;9.98;;
72201;SDS011;60105;54.956;73.412;2022-07-06T12:24:27;20.25;;;10.38;;
72201;SDS011;60105;54.956;73.412;2022-07-06T12:26:56;17.70;;;9.77;;
72201;SDS011;60105;54.956;73.412;2022-07-06T12:29:30;13.90;;;9.00;;
72201;SDS011;60105;54.956;73.412;2022-07-06T12:31:57;14.93;;;9.70;;
72201;SDS011;60105;54.956;73.412;2022-07-06T12:34:24;14.50;;;8.45;;
72201;SDS011;60105;54.956;73.412;2022-07-06T12:36:54;12.30;;;8.05;;
72201;SDS011;60105;54.956;73.412;2022-07-06T12:39:28;13.55;;;9.13;;
72201;SDS011;60105;54.956;73.412;2022-07-06T12:44:28;10.40;;;7.33;;
72201;SDS011;60105;54.956;73.412;2022-07-06T12:47:05;11.35;;;7.22;;
72201;SDS011;60105;54.956;73.412;2022-07-06T12:49:32;11.70;;;6.88;;
72201;SDS011;60105;54.956;73.412;2022-07-06T12:52:08;10.43;;;6.68;;
72201;SDS011;60105;54.956;73.412;2022-07-06T12:54:53;8.93;;;6.30;;
72201;SDS011;60105;54.956;73.412;2022-07-06T12:57:20;10.10;;;7.00;;
72201;SDS011;60105;54.956;73.412;2022-07-06T13:02:29;9.77;;;5.53;;
72201;SDS011;60105;54.956;73.412;2022-07-06T13:04:57;12.50;;;6.20;;
72201;SDS011;60105;54.956;73.412;2022-07-06T13:07:29;9.18;;;5.53;;
72201;SDS011;60105;54.956;73.412;2022-07-06T13:10:08;9.60;;;4.93;;
72201;SDS011;60105;54.956;73.412;2022-07-06T13:12:36;10.70;;;6.03;;
72201;SDS011;60105;54.956;73.412;2022-07-06T13:15:04;9.85;;;5.32;;
72201;SDS011;60105;54.956;73.412;2022-07-06T13:17:34;11.27;;;6.43;;
72201;SDS011;60105;54.956;73.412;2022-07-06T13:20:03;9.68;;;5.82;;
72201;SDS011;60105;54.956;73.412;2022-07-06T13:22:30;8.03;;;5.80;;
72201;SDS011;60105;54.956;73.412;2022-07-06T13:24:56;12.45;;;6.55;;
72201;SDS011;60105;54.956;73.412;2022-07-06T13:27:22;9.85;;;6.13;;
72201;SDS011;60105;54.956;73.412;2022-07-06T13:29:49;12.75;;;5.68;;
72201;SDS011;60105;54.956;73.412;2022-07-06T13:32:15;10.48;;;5.68;;
72201;SDS011;60105;54.956;73.412;2022-07-06T13:34:41;9.13;;;5.50;;
72201;SDS011;60105;54.956;73.412;2022-07-06T13:37:07;11.50;;;6.22;;
72201;SDS011;60105;54.956;73.412;2022-07-06T13:39:43;10.10;;;5.68;;
72201;SDS011;60105;54.956;73.412;2022-07-06T13:42:09;9.35;;;6.10;;
72201;SDS011;60105;54.956;73.412;2022-07-06T13:44:35;9.60;;;6.05;;
72201;SDS011;60105;54.956;73.412;2022-07-06T13:47:02;13.57;;;5.90;;
72201;SDS011;60105;54.956;73.412;2022-07-06T13:49:29;9.00;;;5.47;;
72201;SDS011;60105;54.956;73.412;2022-07-06T13:51:55;10.18;;;5.90;;
72201;SDS011;60105;54.956;73.412;2022-07-06T13:54:27;9.02;;;5.32;;
72201;SDS011;60105;54.956;73.412;2022-07-06T13:56:54;10.30;;;5.72;;
72201;SDS011;60105;54.956;73.412;2022-07-06T13:59:20;10.07;;;6.27;;
72201;SDS011;60105;54.956;73.412;2022-07-06T14:01:46;10.65;;;5.75;;
72201;SDS011;60105;54.956;73.412;2022-07-06T14:04:13;12.27;;;5.70;;
72201;SDS011;60105;54.956;73.412;2022-07-06T14:06:39;11.77;;;6.57;;
72201;SDS011;60105;54.956;73.412;2022-07-06T14:09:05;10.48;;;5.45;;
72201;SDS011;60105;54.956;73.412;2022-07-06T14:11:32;10.43;;;5.30;;
72201;SDS011;60105;54.956;73.412;2022-07-06T14:13:58;11.85;;;5.38;;
72201;SDS011;60105;54.956;73.412;2022-07-06T14:16:24;9.13;;;5.50;;
72201;SDS011;60105;54.956;73.412;2022-07-06T14:18:50;10.77;;;6.25;;
72201;SDS011;60105;54.956;73.412;2022-07-06T14:21:27;12.63;;;6.88;;
72201;SDS011;60105;54.956;73.412;2022-07-06T14:23:53;10.27;;;6.23;;
72201;SDS011;60105;54.956;73.412;2022-07-06T14:26:19;9.90;;;6.13;;
72201;SDS011;60105;54.956;73.412;2022-07-06T14:28:51;10.55;;;4.97;;
72201;SDS011;60105;54.956;73.412;2022-07-06T14:31:17;11.60;;;6.05;;
72201;SDS011;60105;54.956;73.412;2022-07-06T14:33:43;10.15;;;6.05;;
72201;SDS011;60105;54.956;73.412;2022-07-06T14:36:10;13.63;;;6.53;;